Time;durP1;ratioP1;P1;durP2;ratioP2;P2;SDS_P1;SDS_P2;PMS_P1;PMS_P2;Temp;Humidity;BMP_temperature;BMP_pressure;BME280_temperature;BME280_humidity;BME280_pressure;Samples;Min_cycle;Max_cycle;Signal;HPM_P1;HPM_P2
2023/12/25 00:00:09;;;;;;;3.40;0.60;;;;;;;;;;4871221;29;20209;-62
2023/12/25 00:02:36;;;;;;;1.90;0.50;;;;;;;;;;4872243;29;20220;-62
2023/12/25 00:05:03;;;;;;;2.20;0.67;;;;;;;;;;4872384;29;20586;-62
2023/12/25 00:07:30;;;;;;;1.33;0.70;;;;;;;;;;4872871;29;20221;-62
2023/12/25 00:09:58;;;;;;;4.33;0.70;;;;;;;;;;4872624;29;20220;-61
2023/12/25 00:12:25;;;;;;;4.20;0.80;;;;;;;;;;4872523;29;20206;-61
2023/12/25 00:14:53;;;;;;;0.70;0.60;;;;;;;;;;4872307;29;20332;-61
2023/12/25 00:17:20;;;;;;;1.40;0.70;;;;;;;;;;4872324;29;20245;-62
2023/12/25 00:19:47;;;;;;;1.00;0.70;;;;;;;;;;4871558;29;20214;-61
2023/12/25 00:22:14;;;;;;;1.80;0.53;;;;;;;;;;4871595;29;20237;-62
2023/12/25 00:24:41;;;;;;;4.20;1.10;;;;;;;;;;4872268;29;20206;-61
2023/12/25 00:27:08;;;;;;;0.70;0.70;;;;;;;;;;4872492;29;20251;-61
2023/12/25 00:29:35;;;;;;;0.60;0.60;;;;;;;;;;4868003;29;20214;-66
2023/12/25 00:32:04;;;;;;;2.07;0.83;;;;;;;;;;4863127;29;20213;-62
2023/12/25 00:34:31;;;;;;;1.97;0.70;;;;;;;;;;4871900;29;20213;-62
2023/12/25 00:36:58;;;;;;;2.17;0.97;;;;;;;;;;4872121;29;20218;-61
2023/12/25 00:39:25;;;;;;;2.33;0.93;;;;;;;;;;4871985;29;20205;-62
2023/12/25 00:41:52;;;;;;;3.07;0.87;;;;;;;;;;4872030;29;20201;-62
2023/12/25 00:44:19;;;;;;;5.23;1.00;;;;;;;;;;4872905;29;20209;-61
2023/12/25 00:46:46;;;;;;;0.77;0.77;;;;;;;;;;4871055;29;20209;-61
2023/12/25 00:49:16;;;;;;;1.90;0.90;;;;;;;;;;4870812;29;20217;-62
2023/12/25 00:51:43;;;;;;;3.80;0.83;;;;;;;;;;4871648;29;20677;-61
2023/12/25 00:54:10;;;;;;;4.67;0.90;;;;;;;;;;4872552;29;20213;-62
2023/12/25 00:56:38;;;;;;;3.97;0.73;;;;;;;;;;4872947;29;20233;-61
2023/12/25 00:59:05;;;;;;;5.57;0.70;;;;;;;;;;4871806;29;20711;-61
2023/12/25 01:01:32;;;;;;;4.87;1.03;;;;;;;;;;4871905;29;20237;-61
2023/12/25 01:03:59;;;;;;;1.23;1.10;;;;;;;;;;4871418;29;20213;-62
2023/12/25 01:06:27;;;;;;;1.27;0.80;;;;;;;;;;4872325;29;20210;-61
2023/12/25 01:08:55;;;;;;;4.77;1.03;;;;;;;;;;4871856;29;20703;-61
2023/12/25 01:11:22;;;;;;;2.23;0.80;;;;;;;;;;4872190;29;20210;-61
2023/12/25 01:13:49;;;;;;;3.87;1.20;;;;;;;;;;4872016;29;20677;-61
2023/12/25 01:16:16;;;;;;;2.33;1.23;;;;;;;;;;4871973;29;20225;-61
2023/12/25 01:18:43;;;;;;;0.90;0.90;;;;;;;;;;4866987;29;20226;-61
2023/12/25 01:21:10;;;;;;;2.80;1.00;;;;;;;;;;4871169;29;20256;-61
2023/12/25 01:23:39;;;;;;;2.57;0.80;;;;;;;;;;4871706;29;20237;-61
2023/12/25 01:26:06;;;;;;;0.93;0.70;;;;;;;;;;4872381;29;20212;-61
2023/12/25 01:28:33;;;;;;;3.00;1.00;;;;;;;;;;4865347;29;20214;-61
2023/12/25 01:31:00;;;;;;;0.97;0.80;;;;;;;;;;4868382;29;20217;-61
2023/12/25 01:33:27;;;;;;;2.63;0.90;;;;;;;;;;4872095;29;20684;-61
2023/12/25 01:35:54;;;;;;;2.23;0.97;;;;;;;;;;4872345;29;20229;-61
2023/12/25 01:38:21;;;;;;;1.53;0.93;;;;;;;;;;4871379;29;20669;-61
2023/12/25 01:40:49;;;;;;;1.70;0.80;;;;;;;;;;4871884;29;20217;-62
2023/12/25 01:43:16;;;;;;;2.23;0.80;;;;;;;;;;4872116;29;20225;-61
2023/12/25 01:45:43;;;;;;;2.60;0.90;;;;;;;;;;4871963;29;20213;-61
2023/12/25 01:48:10;;;;;;;2.50;0.97;;;;;;;;;;4871428;29;20210;-61
2023/12/25 01:50:37;;;;;;;4.00;1.10;;;;;;;;;;4872521;29;20593;-61
2023/12/25 01:53:05;;;;;;;1.73;1.30;;;;;;;;;;4874931;29;20707;-61
2023/12/25 01:55:32;;;;;;;2.43;1.10;;;;;;;;;;4875341;29;20257;-61
2023/12/25 01:58:01;;;;;;;3.43;1.03;;;;;;;;;;4874802;29;20210;-61
2023/12/25 02:00:28;;;;;;;4.17;1.03;;;;;;;;;;4874404;29;20214;-61
2023/12/25 02:02:55;;;;;;;2.03;1.37;;;;;;;;;;4874721;29;20501;-61
2023/12/25 02:05:22;;;;;;;2.37;1.03;;;;;;;;;;4874143;29;20213;-61
2023/12/25 02:07:49;;;;;;;1.77;0.90;;;;;;;;;;4875123;29;20202;-61
2023/12/25 02:10:27;;;;;;;1.63;1.03;;;;;;;;;;4874336;29;20217;-60
2023/12/25 02:12:54;;;;;;;1.40;0.80;;;;;;;;;;4874370;29;20313;-61
2023/12/25 02:15:22;;;;;;;3.17;1.10;;;;;;;;;;4872970;29;20229;-60
2023/12/25 02:17:50;;;;;;;4.87;1.03;;;;;;;;;;4874014;29;20630;-62
2023/12/25 02:20:17;;;;;;;1.67;1.13;;;;;;;;;;4868577;29;20215;-60
2023/12/25 02:22:44;;;;;;;1.33;0.93;;;;;;;;;;4871977;29;20504;-61
2023/12/25 02:25:14;;;;;;;2.53;0.90;;;;;;;;;;4874898;29;20239;-61
2023/12/25 02:27:42;;;;;;;2.57;1.27;;;;;;;;;;4874047;29;20673;-60
2023/12/25 02:30:09;;;;;;;2.53;0.97;;;;;;;;;;4874107;29;20937;-61
2023/12/25 02:32:36;;;;;;;3.40;1.13;;;;;;;;;;4874527;29;20213;-61
2023/12/25 02:35:03;;;;;;;3.53;1.00;;;;;;;;;;4874340;29;20225;-61
2023/12/25 02:37:30;;;;;;;1.20;1.10;;;;;;;;;;4874054;29;20202;-61
2023/12/25 02:39:57;;;;;;;1.23;1.00;;;;;;;;;;4874227;29;20209;-61
2023/12/25 02:42:24;;;;;;;2.80;1.37;;;;;;;;;;4874259;29;20633;-61
2023/12/25 02:44:53;;;;;;;0.93;0.90;;;;;;;;;;4874453;29;20228;-61
2023/12/25 02:47:20;;;;;;;2.30;0.80;;;;;;;;;;4873857;29;20198;-61
2023/12/25 02:49:47;;;;;;;3.27;1.00;;;;;;;;;;4866125;29;20221;-60
2023/12/25 02:52:14;;;;;;;2.80;1.53;;;;;;;;;;4872459;29;20296;-60
2023/12/25 02:54:41;;;;;;;2.20;0.87;;;;;;;;;;4874137;29;20665;-61
2023/12/25 02:57:08;;;;;;;2.17;1.10;;;;;;;;;;4874457;29;20236;-60
2023/12/25 02:59:35;;;;;;;1.13;0.80;;;;;;;;;;4873660;29;20856;-61
2023/12/25 03:02:03;;;;;;;2.57;1.00;;;;;;;;;;4873743;29;20229;-61
2023/12/25 03:04:30;;;;;;;3.20;0.87;;;;;;;;;;4873805;29;20217;-60
2023/12/25 03:06:57;;;;;;;4.87;1.20;;;;;;;;;;4868038;29;20696;-62
2023/12/25 03:09:24;;;;;;;5.60;1.40;;;;;;;;;;4867929;29;20227;-61
2023/12/25 03:11:51;;;;;;;3.93;1.20;;;;;;;;;;4874689;29;20217;-61
2023/12/25 03:14:18;;;;;;;5.73;1.00;;;;;;;;;;4874590;29;20214;-60
2023/12/25 03:16:45;;;;;;;3.90;1.27;;;;;;;;;;4874553;29;20240;-60
2023/12/25 03:19:14;;;;;;;2.80;0.90;;;;;;;;;;4874192;29;20236;-61
2023/12/25 03:21:41;;;;;;;1.40;0.90;;;;;;;;;;4873885;29;20731;-61
2023/12/25 03:24:08;;;;;;;2.17;0.90;;;;;;;;;;4874149;29;20217;-61
2023/12/25 03:26:35;;;;;;;3.80;0.60;;;;;;;;;;4874647;29;20210;-60
2023/12/25 03:29:02;;;;;;;2.13;0.87;;;;;;;;;;4873850;29;20218;-60
2023/12/25 03:31:29;;;;;;;2.30;0.50;;;;;;;;;;4873895;29;20209;-61
2023/12/25 03:33:58;;;;;;;2.63;0.83;;;;;;;;;;4874603;29;20305;-61
2023/12/25 03:36:26;;;;;;;0.73;0.40;;;;;;;;;;4873867;29;20226;-60
2023/12/25 03:38:53;;;;;;;0.60;0.40;;;;;;;;;;4869955;29;20203;-61
2023/12/25 03:41:21;;;;;;;0.70;0.70;;;;;;;;;;4868566;29;20586;-60
2023/12/25 03:43:48;;;;;;;0.53;0.30;;;;;;;;;;4873557;29;20659;-59
2023/12/25 03:46:15;;;;;;;0.63;0.63;;;;;;;;;;4873158;29;20216;-61
2023/12/25 03:48:43;;;;;;;0.60;0.60;;;;;;;;;;4873667;29;20210;-59
2023/12/25 03:51:10;;;;;;;1.80;0.40;;;;;;;;;;4873153;29;20241;-59
2023/12/25 03:53:38;;;;;;;1.80;0.40;;;;;;;;;;4873544;29;20261;-60
2023/12/25 03:56:05;;;;;;;0.40;0.40;;;;;;;;;;4873607;29;20229;-59
2023/12/25 03:58:34;;;;;;;0.30;0.30;;;;;;;;;;4872282;29;20209;-60
2023/12/25 04:01:02;;;;;;;0.30;0.30;;;;;;;;;;4872838;29;20247;-59
2023/12/25 04:03:29;;;;;;;0.37;0.37;;;;;;;;;;4871747;29;20206;-59
2023/12/25 04:05:56;;;;;;;0.73;0.40;;;;;;;;;;4865078;29;20218;-61
2023/12/25 04:08:23;;;;;;;0.40;0.40;;;;;;;;;;4864992;29;20287;-61
2023/12/25 04:10:51;;;;;;;1.70;0.40;;;;;;;;;;4865686;29;20217;-62
2023/12/25 04:13:18;;;;;;;0.50;0.40;;;;;;;;;;4864539;29;20376;-60
2023/12/25 04:15:45;;;;;;;0.40;0.40;;;;;;;;;;4865090;29;20280;-59
2023/12/25 04:18:12;;;;;;;0.60;0.60;;;;;;;;;;4863324;29;20713;-63
2023/12/25 04:20:40;;;;;;;1.67;0.40;;;;;;;;;;4861712;29;20225;-60
2023/12/25 04:23:07;;;;;;;1.60;0.30;;;;;;;;;;4864974;29;20242;-60
2023/12/25 04:25:34;;;;;;;0.30;0.30;;;;;;;;;;4861627;29;20210;-59
2023/12/25 04:28:02;;;;;;;2.60;0.40;;;;;;;;;;4864680;29;21099;-60
2023/12/25 04:30:29;;;;;;;0.70;0.30;;;;;;;;;;4866119;29;20211;-60
2023/12/25 04:32:56;;;;;;;0.30;0.30;;;;;;;;;;4863146;29;20211;-60
2023/12/25 04:35:23;;;;;;;0.40;0.40;;;;;;;;;;4864148;29;20210;-60
2023/12/25 04:37:50;;;;;;;1.90;0.63;;;;;;;;;;4862916;29;20225;-60
2023/12/25 04:40:18;;;;;;;0.30;0.30;;;;;;;;;;4864635;29;20213;-61
2023/12/25 04:42:45;;;;;;;0.47;0.30;;;;;;;;;;4865184;29;20211;-61
2023/12/25 04:45:13;;;;;;;0.20;0.20;;;;;;;;;;4864263;29;20214;-61
2023/12/25 04:47:41;;;;;;;0.20;0.20;;;;;;;;;;4862997;29;20305;-61
2023/12/25 04:50:08;;;;;;;1.20;0.40;;;;;;;;;;4867157;29;20237;-61
2023/12/25 04:52:35;;;;;;;0.47;0.30;;;;;;;;;;4866695;29;20306;-62
2023/12/25 04:55:03;;;;;;;3.87;0.60;;;;;;;;;;4863953;29;20696;-61
2023/12/25 04:57:30;;;;;;;0.60;0.30;;;;;;;;;;4864875;29;21060;-61
2023/12/25 04:59:57;;;;;;;0.10;0.10;;;;;;;;;;4864062;29;20217;-62
2023/12/25 05:02:25;;;;;;;0.30;0.30;;;;;;;;;;4863774;29;20259;-60
2023/12/25 05:04:52;;;;;;;4.30;0.30;;;;;;;;;;4863546;29;20589;-60
2023/12/25 05:07:19;;;;;;;0.40;0.20;;;;;;;;;;4864960;29;20205;-60
2023/12/25 05:09:47;;;;;;;0.10;0.10;;;;;;;;;;4865539;29;20238;-60
2023/12/25 05:12:14;;;;;;;0.20;0.20;;;;;;;;;;4863513;29;20210;-61
2023/12/25 05:14:41;;;;;;;0.10;0.10;;;;;;;;;;4863666;29;20214;-60
2023/12/25 05:17:08;;;;;;;0.10;0.10;;;;;;;;;;4863434;29;20241;-60
2023/12/25 05:19:37;;;;;;;0.10;0.10;;;;;;;;;;4868704;29;20237;-60
2023/12/25 05:22:05;;;;;;;0.20;0.20;;;;;;;;;;4864560;29;20305;-60
2023/12/25 05:24:32;;;;;;;0.10;0.10;;;;;;;;;;4866677;29;20206;-61
2023/12/25 05:26:59;;;;;;;0.20;0.20;;;;;;;;;;4865051;29;20210;-61
2023/12/25 05:29:26;;;;;;;0.10;0.10;;;;;;;;;;4865638;29;20675;-60
2023/12/25 05:31:53;;;;;;;0.57;0.10;;;;;;;;;;4863152;29;20207;-61
2023/12/25 05:34:20;;;;;;;0.20;0.20;;;;;;;;;;4857649;29;20237;-61
2023/12/25 05:36:49;;;;;;;0.40;0.10;;;;;;;;;;4865603;29;20234;-61
2023/12/25 05:39:16;;;;;;;0.10;0.10;;;;;;;;;;4875780;29;20221;-61
2023/12/25 05:41:43;;;;;;;0.07;0.07;;;;;;;;;;4875193;29;20210;-61
2023/12/25 05:44:10;;;;;;;1.60;0.10;;;;;;;;;;4875536;29;20206;-61
2023/12/25 05:46:37;;;;;;;0.10;0.10;;;;;;;;;;4875643;29;20217;-61
2023/12/25 05:49:04;;;;;;;0.00;0.00;;;;;;;;;;4875086;29;20213;-61
2023/12/25 05:51:31;;;;;;;0.00;0.00;;;;;;;;;;4872399;29;20220;-61
2023/12/25 05:54:00;;;;;;;0.00;0.00;;;;;;;;;;4875572;29;20206;-61
2023/12/25 05:56:27;;;;;;;0.20;0.10;;;;;;;;;;4874959;29;20217;-61
2023/12/25 05:58:54;;;;;;;0.00;0.00;;;;;;;;;;4875087;29;20218;-61
2023/12/25 06:01:21;;;;;;;0.30;0.00;;;;;;;;;;4875089;29;20217;-61
2023/12/25 06:03:49;;;;;;;0.00;0.00;;;;;;;;;;4875025;29;20206;-61
2023/12/25 06:06:17;;;;;;;0.00;0.00;;;;;;;;;;4875032;29;20670;-61
2023/12/25 06:08:44;;;;;;;0.00;0.00;;;;;;;;;;4874789;29;20214;-61
2023/12/25 06:11:12;;;;;;;0.93;0.20;;;;;;;;;;4874697;29;20210;-61
2023/12/25 06:13:40;;;;;;;0.33;0.33;;;;;;;;;;4875731;29;20214;-61
2023/12/25 06:16:07;;;;;;;0.20;0.20;;;;;;;;;;4875550;29;20209;-61
2023/12/25 06:18:34;;;;;;;0.40;0.40;;;;;;;;;;4871295;29;20233;-61
2023/12/25 06:21:01;;;;;;;0.37;0.20;;;;;;;;;;4874811;29;20229;-61
2023/12/25 06:23:28;;;;;;;0.10;0.10;;;;;;;;;;4875285;29;20321;-61
2023/12/25 06:25:55;;;;;;;0.20;0.20;;;;;;;;;;4875115;29;20281;-61
2023/12/25 06:28:23;;;;;;;0.30;0.23;;;;;;;;;;4874560;29;20205;-61
2023/12/25 06:30:51;;;;;;;0.17;0.10;;;;;;;;;;4873822;29;20647;-61
2023/12/25 06:33:18;;;;;;;3.20;0.10;;;;;;;;;;4874354;29;20219;-61
2023/12/25 06:35:45;;;;;;;0.20;0.10;;;;;;;;;;4874938;29;20221;-61
2023/12/25 06:38:13;;;;;;;0.30;0.30;;;;;;;;;;4874901;29;20709;-61
2023/12/25 06:40:40;;;;;;;0.10;0.10;;;;;;;;;;4874102;29;20296;-61
2023/12/25 06:43:08;;;;;;;0.00;0.00;;;;;;;;;;4872571;29;20848;-61
2023/12/25 06:45:37;;;;;;;0.10;0.10;;;;;;;;;;4875162;29;20236;-61
2023/12/25 06:48:04;;;;;;;2.33;0.10;;;;;;;;;;4874873;29;20202;-62
2023/12/25 06:50:31;;;;;;;0.00;0.00;;;;;;;;;;4872472;29;20688;-61
2023/12/25 06:52:58;;;;;;;0.00;0.00;;;;;;;;;;4873856;29;20214;-61
2023/12/25 06:55:25;;;;;;;0.10;0.10;;;;;;;;;;4874631;29;20244;-61
2023/12/25 06:57:52;;;;;;;1.10;0.10;;;;;;;;;;4874386;29;20958;-61
2023/12/25 07:00:20;;;;;;;1.60;0.10;;;;;;;;;;4874421;29;20217;-61
2023/12/25 07:02:48;;;;;;;0.00;0.00;;;;;;;;;;4857844;29;20210;-61
2023/12/25 07:05:15;;;;;;;1.90;0.10;;;;;;;;;;4874501;29;20214;-61
2023/12/25 07:07:42;;;;;;;0.50;0.20;;;;;;;;;;4874571;29;20877;-62
2023/12/25 07:10:10;;;;;;;0.27;0.03;;;;;;;;;;4874051;29;20217;-62
2023/12/25 07:12:37;;;;;;;0.00;0.00;;;;;;;;;;4860724;29;20214;-61
2023/12/25 07:15:04;;;;;;;0.10;0.10;;;;;;;;;;4871955;29;20747;-61
2023/12/25 07:17:32;;;;;;;0.10;0.10;;;;;;;;;;4874133;29;20237;-62
2023/12/25 07:20:01;;;;;;;0.30;0.30;;;;;;;;;;4874085;29;20210;-62
2023/12/25 07:22:29;;;;;;;0.10;0.10;;;;;;;;;;4871642;29;20246;-60
2023/12/25 07:24:56;;;;;;;0.00;0.00;;;;;;;;;;4873346;29;20241;-60
2023/12/25 07:27:23;;;;;;;0.07;0.00;;;;;;;;;;4873854;29;20202;-60
2023/12/25 07:29:50;;;;;;;0.43;0.10;;;;;;;;;;4874197;29;20221;-62
2023/12/25 07:32:17;;;;;;;0.00;0.00;;;;;;;;;;4873408;29;20244;-60
2023/12/25 07:34:44;;;;;;;0.20;0.20;;;;;;;;;;4872767;29;20214;-60
2023/12/25 07:37:12;;;;;;;0.20;0.20;;;;;;;;;;4873887;29;20229;-61
2023/12/25 07:39:42;;;;;;;0.20;0.20;;;;;;;;;;4871637;29;20206;-62
2023/12/25 07:42:09;;;;;;;0.10;0.10;;;;;;;;;;4869119;29;20213;-61
2023/12/25 07:44:39;;;;;;;0.10;0.10;;;;;;;;;;4873307;29;20206;-61
2023/12/25 07:47:06;;;;;;;1.90;0.17;;;;;;;;;;4870489;29;20578;-62
2023/12/25 07:49:33;;;;;;;0.10;0.10;;;;;;;;;;4866201;29;20258;-62
2023/12/25 07:52:00;;;;;;;0.20;0.20;;;;;;;;;;4862874;29;20685;-61
2023/12/25 07:54:28;;;;;;;0.10;0.10;;;;;;;;;;4873580;29;20221;-61
2023/12/25 07:56:55;;;;;;;0.00;0.00;;;;;;;;;;4873093;29;20224;-61
2023/12/25 07:59:22;;;;;;;0.00;0.00;;;;;;;;;;4867574;29;20218;-61
2023/12/25 08:01:49;;;;;;;0.07;0.07;;;;;;;;;;4872980;29;20848;-61
2023/12/25 08:04:16;;;;;;;0.00;0.00;;;;;;;;;;4873797;29;20229;-61
2023/12/25 08:06:44;;;;;;;0.00;0.00;;;;;;;;;;4870830;29;20214;-62
2023/12/25 08:09:11;;;;;;;0.10;0.10;;;;;;;;;;4872349;29;20501;-62
2023/12/25 08:11:39;;;;;;;0.10;0.10;;;;;;;;;;4873492;29;20210;-61
2023/12/25 08:14:06;;;;;;;0.10;0.10;;;;;;;;;;4872670;29;20207;-62
2023/12/25 08:16:33;;;;;;;0.00;0.00;;;;;;;;;;4872840;29;20288;-62
2023/12/25 08:19:00;;;;;;;0.10;0.10;;;;;;;;;;4863293;29;20247;-61
2023/12/25 08:21:27;;;;;;;0.10;0.10;;;;;;;;;;4853269;29;20323;-61
2023/12/25 08:23:54;;;;;;;0.10;0.10;;;;;;;;;;4872779;29;21010;-61
2023/12/25 08:26:21;;;;;;;0.10;0.10;;;;;;;;;;4872897;29;20206;-59
2023/12/25 08:28:52;;;;;;;0.43;0.10;;;;;;;;;;4872264;29;20289;-59
2023/12/25 08:31:19;;;;;;;0.00;0.00;;;;;;;;;;4872891;29;20237;-60
2023/12/25 08:33:46;;;;;;;0.00;0.00;;;;;;;;;;4872994;29;20214;-60
2023/12/25 08:36:13;;;;;;;0.00;0.00;;;;;;;;;;4873479;29;20848;-60
2023/12/25 08:38:40;;;;;;;0.00;0.00;;;;;;;;;;4872171;29;20277;-59
2023/12/25 08:41:07;;;;;;;0.10;0.10;;;;;;;;;;4872840;29;20217;-59
2023/12/25 08:43:34;;;;;;;0.10;0.10;;;;;;;;;;4872713;29;20258;-59
2023/12/25 08:46:03;;;;;;;0.10;0.10;;;;;;;;;;4873197;29;20221;-59
2023/12/25 08:48:30;;;;;;;0.00;0.00;;;;;;;;;;4872660;29;20756;-59
2023/12/25 08:50:57;;;;;;;0.60;0.10;;;;;;;;;;4872810;29;20209;-59
2023/12/25 08:53:24;;;;;;;0.00;0.00;;;;;;;;;;4872595;29;20209;-59
2023/12/25 08:55:51;;;;;;;0.53;0.00;;;;;;;;;;4872951;29;20755;-59
2023/12/25 08:58:18;;;;;;;0.07;0.07;;;;;;;;;;4869023;29;20324;-59
2023/12/25 09:00:46;;;;;;;0.10;0.10;;;;;;;;;;4863571;29;20210;-59
2023/12/25 09:03:14;;;;;;;0.10;0.10;;;;;;;;;;4874280;29;20209;-64
2023/12/25 09:05:41;;;;;;;0.40;0.00;;;;;;;;;;4876904;29;20649;-62
2023/12/25 09:08:09;;;;;;;0.00;0.00;;;;;;;;;;4874607;29;20293;-60
2023/12/25 09:10:36;;;;;;;0.03;0.03;;;;;;;;;;4871430;29;20233;-61
2023/12/25 09:13:03;;;;;;;0.07;0.07;;;;;;;;;;4875750;29;20240;-61
2023/12/25 09:15:31;;;;;;;0.10;0.10;;;;;;;;;;4876000;29;20225;-61
2023/12/25 09:17:58;;;;;;;0.10;0.10;;;;;;;;;;4875481;29;20244;-61
2023/12/25 09:20:26;;;;;;;0.10;0.10;;;;;;;;;;4870564;29;20225;-61
2023/12/25 09:22:53;;;;;;;0.43;0.20;;;;;;;;;;4874890;29;20716;-61
2023/12/25 09:25:20;;;;;;;0.30;0.30;;;;;;;;;;4875189;29;20217;-61
2023/12/25 09:27:47;;;;;;;0.10;0.10;;;;;;;;;;4874951;29;20202;-61
2023/12/25 09:30:15;;;;;;;0.10;0.10;;;;;;;;;;4872104;29;20699;-61
2023/12/25 09:32:42;;;;;;;0.10;0.10;;;;;;;;;;4874080;29;20313;-60
2023/12/25 09:35:12;;;;;;;1.17;0.40;;;;;;;;;;4874306;29;20363;-61
2023/12/25 09:37:40;;;;;;;2.73;1.17;;;;;;;;;;4861246;29;20396;-60
2023/12/25 09:40:08;;;;;;;3.07;1.00;;;;;;;;;;4874665;29;20224;-61
2023/12/25 09:42:35;;;;;;;2.40;0.90;;;;;;;;;;4874317;29;20300;-60
2023/12/25 09:45:03;;;;;;;3.73;0.10;;;;;;;;;;4873709;29;20305;-59
2023/12/25 09:47:31;;;;;;;1.13;0.37;;;;;;;;;;4874905;29;20746;-61
2023/12/25 09:49:58;;;;;;;0.30;0.10;;;;;;;;;;4875103;29;20281;-60
2023/12/25 09:52:25;;;;;;;2.53;1.07;;;;;;;;;;4875340;29;20224;-58
2023/12/25 09:54:54;;;;;;;0.10;0.10;;;;;;;;;;4874967;29;20878;-64
2023/12/25 09:57:22;;;;;;;0.00;0.00;;;;;;;;;;4874552;29;20356;-60
2023/12/25 09:59:52;;;;;;;6.90;1.13;;;;;;;;;;4874657;29;20252;-61
2023/12/25 10:02:19;;;;;;;1.90;0.40;;;;;;;;;;4860251;29;20270;-61
2023/12/25 10:04:47;;;;;;;0.57;0.40;;;;;;;;;;4874564;29;20213;-61
2023/12/25 10:07:14;;;;;;;0.50;0.30;;;;;;;;;;4871230;29;20241;-61
2023/12/25 10:09:42;;;;;;;0.10;0.10;;;;;;;;;;4874230;29;20296;-61
2023/12/25 10:12:11;;;;;;;1.07;0.20;;;;;;;;;;4873413;29;20222;-60
2023/12/25 10:14:38;;;;;;;2.83;0.10;;;;;;;;;;4869777;29;20821;-61
2023/12/25 10:17:05;;;;;;;0.10;0.10;;;;;;;;;;4873464;29;20214;-59
2023/12/25 10:19:33;;;;;;;1.37;1.37;;;;;;;;;;4872494;29;20241;-61
2023/12/25 10:22:02;;;;;;;0.13;0.10;;;;;;;;;;4870600;29;20356;-61
2023/12/25 10:24:30;;;;;;;0.30;0.20;;;;;;;;;;4870350;29;20210;-62
2023/12/25 10:27:02;;;;;;;0.10;0.10;;;;;;;;;;4874190;29;20761;-63
2023/12/25 10:29:36;;;;;;;0.10;0.10;;;;;;;;;;4874566;29;20205;-62
2023/12/25 10:32:17;;;;;;;0.10;0.10;;;;;;;;;;4874521;29;20241;-65
2023/12/25 10:34:44;;;;;;;0.10;0.10;;;;;;;;;;4874814;29;20249;-64
2023/12/25 10:37:12;;;;;;;0.10;0.10;;;;;;;;;;4873525;29;20221;-60
2023/12/25 10:39:39;;;;;;;0.10;0.10;;;;;;;;;;4874235;29;20285;-63
2023/12/25 10:42:08;;;;;;;0.10;0.10;;;;;;;;;;4875223;29;20696;-62
2023/12/25 10:44:38;;;;;;;0.00;0.00;;;;;;;;;;4874690;29;20240;-66
2023/12/25 10:47:07;;;;;;;0.10;0.10;;;;;;;;;;4874874;29;20232;-63
2023/12/25 10:49:34;;;;;;;0.10;0.10;;;;;;;;;;4874240;29;20305;-62
2023/12/25 10:52:02;;;;;;;0.10;0.10;;;;;;;;;;4874203;29;20213;-62
2023/12/25 10:54:29;;;;;;;0.20;0.20;;;;;;;;;;4874622;29;20708;-61
2023/12/25 10:56:57;;;;;;;0.00;0.00;;;;;;;;;;4874500;29;20210;-62
2023/12/25 10:59:26;;;;;;;0.20;0.20;;;;;;;;;;4872119;29;20240;-62
2023/12/25 11:01:55;;;;;;;0.93;0.20;;;;;;;;;;4873779;29;20595;-61
2023/12/25 11:04:23;;;;;;;0.20;0.13;;;;;;;;;;4870130;29;20221;-60
2023/12/25 11:06:50;;;;;;;0.20;0.20;;;;;;;;;;4874527;29;20217;-61
2023/12/25 11:09:19;;;;;;;0.50;0.50;;;;;;;;;;4874601;29;20205;-59
2023/12/25 11:11:47;;;;;;;0.40;0.40;;;;;;;;;;4874155;29;20315;-61
2023/12/25 11:14:14;;;;;;;0.63;0.63;;;;;;;;;;4873689;29;20217;-61
2023/12/25 11:16:41;;;;;;;0.20;0.20;;;;;;;;;;4873829;29;20225;-65
2023/12/25 11:19:10;;;;;;;0.20;0.20;;;;;;;;;;4871709;29;20241;-62
2023/12/25 11:21:37;;;;;;;0.10;0.10;;;;;;;;;;4873688;29;20245;-61
2023/12/25 11:24:04;;;;;;;0.10;0.10;;;;;;;;;;4874240;29;20218;-66
2023/12/25 11:26:31;;;;;;;0.20;0.20;;;;;;;;;;4872322;29;20238;-62
2023/12/25 11:29:00;;;;;;;0.20;0.20;;;;;;;;;;4873754;29;20222;-62
2023/12/25 11:31:28;;;;;;;0.30;0.30;;;;;;;;;;4872955;29;20206;-62
2023/12/25 11:34:16;;;;;;;2.77;0.27;;;;;;;;;;4869620;29;20266;-62
2023/12/25 11:36:44;;;;;;;0.20;0.20;;;;;;;;;;4873074;29;20209;-62
2023/12/25 11:39:12;;;;;;;0.30;0.30;;;;;;;;;;4870868;29;20237;-62
2023/12/25 11:41:39;;;;;;;0.30;0.30;;;;;;;;;;4873267;29;20214;-65
2023/12/25 11:44:07;;;;;;;1.33;0.20;;;;;;;;;;4873561;29;20213;-62
2023/12/25 11:46:36;;;;;;;0.10;0.10;;;;;;;;;;4872106;29;20385;-65
2023/12/25 11:49:03;;;;;;;0.10;0.10;;;;;;;;;;4872693;29;20874;-62
2023/12/25 11:51:31;;;;;;;0.10;0.10;;;;;;;;;;4873177;29;20220;-61
2023/12/25 11:54:00;;;;;;;0.10;0.10;;;;;;;;;;4872368;29;20309;-62
2023/12/25 11:56:28;;;;;;;0.10;0.10;;;;;;;;;;4873701;29;20277;-62
2023/12/25 11:58:56;;;;;;;0.00;0.00;;;;;;;;;;4871967;29;20234;-62
2023/12/25 12:01:23;;;;;;;0.10;0.10;;;;;;;;;;4871530;29;20474;-62
2023/12/25 12:03:51;;;;;;;0.10;0.10;;;;;;;;;;4869627;29;20210;-62
2023/12/25 12:06:19;;;;;;;0.10;0.10;;;;;;;;;;4865546;29;20212;-62
2023/12/25 12:08:47;;;;;;;0.00;0.00;;;;;;;;;;4871841;29;20548;-62
2023/12/25 12:11:16;;;;;;;0.20;0.20;;;;;;;;;;4872493;29;20305;-62
2023/12/25 12:13:43;;;;;;;0.43;0.10;;;;;;;;;;4871303;29;20217;-62
2023/12/25 12:16:10;;;;;;;0.20;0.20;;;;;;;;;;4869155;29;20214;-62
2023/12/25 12:18:37;;;;;;;0.10;0.10;;;;;;;;;;4869029;29;20238;-62
2023/12/25 12:21:05;;;;;;;0.10;0.10;;;;;;;;;;4860067;29;20230;-63
2023/12/25 12:23:32;;;;;;;0.13;0.13;;;;;;;;;;4857146;29;20226;-62
2023/12/25 12:25:59;;;;;;;0.00;0.00;;;;;;;;;;4861461;29;20214;-62
2023/12/25 12:28:28;;;;;;;0.10;0.10;;;;;;;;;;4867527;29;20241;-62
2023/12/25 12:30:55;;;;;;;0.10;0.10;;;;;;;;;;4864923;29;20419;-62
2023/12/25 12:33:22;;;;;;;0.17;0.17;;;;;;;;;;4867358;29;20282;-63
2023/12/25 12:35:49;;;;;;;0.10;0.10;;;;;;;;;;4868926;29;20224;-63
2023/12/25 12:38:16;;;;;;;0.10;0.10;;;;;;;;;;4868713;29;20655;-64
2023/12/25 12:40:43;;;;;;;0.10;0.10;;;;;;;;;;4869056;29;20226;-62
2023/12/25 12:43:10;;;;;;;0.00;0.00;;;;;;;;;;4868248;29;20209;-61
2023/12/25 12:45:39;;;;;;;0.00;0.00;;;;;;;;;;4868002;29;20264;-61
2023/12/25 12:48:07;;;;;;;0.10;0.10;;;;;;;;;;4866205;29;20221;-61
2023/12/25 12:50:34;;;;;;;0.10;0.10;;;;;;;;;;4871039;29;20278;-61
2023/12/25 12:53:01;;;;;;;0.10;0.10;;;;;;;;;;4870525;29;20665;-61
2023/12/25 12:55:30;;;;;;;0.10;0.10;;;;;;;;;;4866178;29;20277;-63
2023/12/25 12:57:57;;;;;;;0.93;0.40;;;;;;;;;;4867302;29;20219;-61
2023/12/25 13:00:24;;;;;;;0.10;0.10;;;;;;;;;;4857734;29;20233;-62
2023/12/25 13:02:57;;;;;;;0.10;0.10;;;;;;;;;;4867145;29;20646;-61
2023/12/25 13:05:25;;;;;;;0.10;0.10;;;;;;;;;;4868481;29;20222;-62
2023/12/25 13:07:52;;;;;;;0.10;0.10;;;;;;;;;;4868423;29;20205;-62
2023/12/25 13:10:19;;;;;;;0.00;0.00;;;;;;;;;;4866026;29;20210;-62
2023/12/25 13:12:46;;;;;;;0.10;0.10;;;;;;;;;;4865783;29;20237;-62
2023/12/25 13:15:13;;;;;;;0.00;0.00;;;;;;;;;;4865673;29;20665;-62
2023/12/25 13:17:41;;;;;;;0.10;0.10;;;;;;;;;;4864737;29;20210;-62
2023/12/25 13:22:45;;;;;;;0.10;0.10;;;;;;;;;;5556412;23;20233;-60
2023/12/25 13:25:12;;;;;;;0.10;0.10;;;;;;;;;;4955165;28;20214;-63
2023/12/25 13:27:39;;;;;;;0.13;0.13;;;;;;;;;;4957734;28;20221;-61
2023/12/25 13:30:07;;;;;;;0.10;0.10;;;;;;;;;;4939480;28;20215;-61
2023/12/25 13:32:34;;;;;;;0.63;0.20;;;;;;;;;;4951880;28;20234;-61
2023/12/25 13:35:01;;;;;;;0.60;0.60;;;;;;;;;;4962105;28;20211;-62
2023/12/25 13:37:28;;;;;;;0.20;0.20;;;;;;;;;;4961221;28;20198;-61
2023/12/25 13:40:00;;;;;;;0.10;0.10;;;;;;;;;;4957755;28;20235;-61
2023/12/25 13:42:27;;;;;;;0.20;0.20;;;;;;;;;;4942894;29;20276;-61
2023/12/25 13:44:54;;;;;;;0.20;0.20;;;;;;;;;;4945940;28;20313;-61
2023/12/25 13:47:21;;;;;;;0.20;0.20;;;;;;;;;;4950472;28;20374;-61
2023/12/25 13:49:48;;;;;;;0.20;0.20;;;;;;;;;;4955958;28;20209;-61
2023/12/25 13:52:16;;;;;;;0.30;0.30;;;;;;;;;;4956610;28;20225;-60
2023/12/25 13:54:43;;;;;;;0.40;0.30;;;;;;;;;;4958898;28;20211;-60
2023/12/25 13:57:11;;;;;;;0.30;0.30;;;;;;;;;;4945969;28;20834;-61
2023/12/25 13:59:38;;;;;;;0.20;0.20;;;;;;;;;;4955258;28;20225;-60
2023/12/25 14:02:07;;;;;;;0.20;0.20;;;;;;;;;;4963257;28;20314;-61
2023/12/25 14:04:35;;;;;;;0.20;0.20;;;;;;;;;;4953541;28;20289;-60
2023/12/25 14:07:03;;;;;;;0.10;0.10;;;;;;;;;;4960359;28;20660;-60
2023/12/25 14:09:30;;;;;;;2.33;0.13;;;;;;;;;;4960225;28;20606;-61
2023/12/25 14:11:57;;;;;;;0.30;0.30;;;;;;;;;;4964713;28;20221;-61
2023/12/25 14:14:26;;;;;;;0.20;0.20;;;;;;;;;;4961063;28;20206;-61
2023/12/25 14:16:53;;;;;;;2.10;0.20;;;;;;;;;;4951918;28;20211;-62
2023/12/25 14:19:20;;;;;;;0.10;0.10;;;;;;;;;;4954465;28;20227;-61
2023/12/25 14:21:47;;;;;;;0.10;0.10;;;;;;;;;;4951299;28;20602;-61
2023/12/25 14:24:15;;;;;;;0.10;0.10;;;;;;;;;;4961103;28;21136;-61
2023/12/25 14:26:42;;;;;;;0.10;0.10;;;;;;;;;;4964745;28;20267;-61
2023/12/25 14:29:09;;;;;;;0.10;0.10;;;;;;;;;;4958048;28;20217;-61
2023/12/25 14:31:38;;;;;;;0.37;0.37;;;;;;;;;;4961823;28;20199;-61
2023/12/25 14:34:05;;;;;;;0.20;0.20;;;;;;;;;;4959484;28;20695;-61
2023/12/25 14:36:32;;;;;;;0.20;0.20;;;;;;;;;;4961608;28;20213;-61
2023/12/25 14:39:00;;;;;;;0.20;0.20;;;;;;;;;;4964652;28;20306;-64
2023/12/25 14:41:27;;;;;;;0.40;0.40;;;;;;;;;;4966915;28;20214;-61
2023/12/25 14:43:54;;;;;;;0.60;0.60;;;;;;;;;;4967006;28;20429;-60
2023/12/25 14:46:21;;;;;;;0.93;0.93;;;;;;;;;;4963163;28;20211;-60